createdAt,value
2019-02-19T00:00:31.437Z,938.82
2019-02-19T00:01:31.850Z,938.91
2019-02-19T00:02:32.259Z,938.92
2019-02-19T00:03:32.948Z,938.91
2019-02-19T00:04:33.205Z,938.94
2019-02-19T00:05:33.901Z,938.95
2019-02-19T00:06:34.280Z,938.95
2019-02-19T00:07:35.247Z,938.97
2019-02-19T00:08:36.383Z,938.9
2019-02-19T00:09:37.073Z,938.89
2019-02-19T00:10:37.487Z,938.94
2019-02-19T00:11:38.181Z,938.94
2019-02-19T00:12:39.315Z,938.94
2019-02-19T00:13:40.039Z,938.91
2019-02-19T00:14:40.449Z,938.97
2019-02-19T00:15:41.143Z,938.93
2019-02-19T00:16:41.989Z,938.97
2019-02-19T00:17:42.677Z,938.95
2019-02-19T00:18:43.811Z,938.93
2019-02-19T00:19:44.501Z,938.93
2019-02-19T00:20:45.635Z,938.94
2019-02-19T00:21:46.325Z,938.92
2019-02-19T00:22:47.017Z,938.93
2019-02-19T00:23:47.728Z,938.97
2019-02-19T00:24:48.866Z,938.9
2019-02-19T00:25:49.152Z,938.94
2019-02-19T00:26:50.301Z,938.98
2019-02-19T00:27:50.992Z,939.03
2019-02-19T00:28:51.962Z,938.99
2019-02-19T00:29:52.656Z,938.97
2019-02-19T00:30:53.793Z,938.96
2019-02-19T00:31:54.770Z,938.99
2019-02-19T00:32:55.459Z,938.96
2019-02-19T00:33:56.429Z,938.99
2019-02-19T00:34:57.398Z,938.99
2019-02-19T00:35:58.104Z,938.98
2019-02-19T00:36:58.948Z,939
2019-02-19T00:37:59.366Z,939.01
2019-02-19T00:39:00.058Z,938.97
2019-02-19T00:40:01.027Z,938.96
2019-02-19T00:41:01.556Z,938.98
2019-02-19T00:42:02.260Z,938.98
2019-02-19T00:43:03.519Z,938.95
2019-02-19T00:44:04.491Z,939
2019-02-19T00:45:05.460Z,938.98
2019-02-19T00:46:06.424Z,938.99
2019-02-19T00:47:07.833Z,938.98
2019-02-19T00:48:08.080Z,939
2019-02-19T00:49:08.772Z,938.98
2019-02-19T00:50:09.196Z,939.05
2019-02-19T00:51:09.889Z,939.06
2019-02-19T00:52:10.615Z,939.05
2019-02-19T00:53:11.028Z,939.06
2019-02-19T00:54:11.442Z,939.08
2019-02-19T00:55:11.684Z,939.03
2019-02-19T00:56:12.400Z,939.04
2019-02-19T00:57:13.224Z,939.08
2019-02-19T00:58:14.209Z,939.06
2019-02-19T00:59:15.178Z,939.06
2019-02-19T01:00:16.151Z,939.03
2019-02-19T01:01:17.118Z,939.08
2019-02-19T01:02:17.541Z,939.08
2019-02-19T01:03:18.229Z,939.06
2019-02-19T01:04:18.919Z,939.06
2019-02-19T01:05:19.884Z,939.06
2019-02-19T01:06:21.029Z,939.1
2019-02-19T01:07:21.322Z,939.12
2019-02-19T01:08:21.846Z,939.02
2019-02-19T01:09:22.812Z,939.04
2019-02-19T01:10:23.267Z,939.07
2019-02-19T01:11:23.952Z,939.11
2019-02-19T01:12:24.652Z,939.12
2019-02-19T01:13:25.063Z,939
2019-02-19T01:14:25.771Z,939
2019-02-19T01:15:27.224Z,939.03
2019-02-19T01:16:28.194Z,939.12
2019-02-19T01:17:28.849Z,939.05
2019-02-19T01:18:29.382Z,939.06
2019-02-19T01:19:29.790Z,939.03
2019-02-19T01:20:30.037Z,939.05
2019-02-19T01:21:30.449Z,939.06
2019-02-19T01:22:31.417Z,938.99
2019-02-19T01:23:32.116Z,939.04
2019-02-19T01:24:32.804Z,939.06
2019-02-19T01:25:34.059Z,939.04
2019-02-19T01:26:34.473Z,939.05
2019-02-19T01:27:35.125Z,939.03
2019-02-19T01:28:35.536Z,939.06
2019-02-19T01:29:36.248Z,939.06
2019-02-19T01:30:37.379Z,939.05
2019-02-19T01:31:37.795Z,939.05
2019-02-19T01:32:39.207Z,939.02
2019-02-19T01:33:39.661Z,939.07
2019-02-19T01:34:40.362Z,939.08
2019-02-19T01:35:41.055Z,939.07
2019-02-19T01:36:41.466Z,939.03
2019-02-19T01:37:42.319Z,939.07
2019-02-19T01:38:42.734Z,939.16
2019-02-19T01:39:43.146Z,939.09
2019-02-19T01:40:43.560Z,939.08
2019-02-19T01:41:44.805Z,939.09
2019-02-19T01:42:45.534Z,939.11
2019-02-19T01:43:46.784Z,939.13
2019-02-19T01:44:47.472Z,939.09
2019-02-19T01:45:48.233Z,939.1
2019-02-19T01:46:48.929Z,939.11
2019-02-19T01:47:50.303Z,939.09
2019-02-19T01:48:51.263Z,939.17
2019-02-19T01:49:51.679Z,939.19
2019-02-19T01:50:52.379Z,939.18
2019-02-19T01:51:53.346Z,939.21
2019-02-19T01:52:54.313Z,939.2
2019-02-19T01:53:54.723Z,939.18
2019-02-19T01:54:55.415Z,939.16
2019-02-19T01:55:55.838Z,939.23
2019-02-19T01:56:56.803Z,939.17
2019-02-19T01:57:57.067Z,939.13
2019-02-19T01:58:58.032Z,939.16
2019-02-19T01:59:59.004Z,939.21
2019-02-19T02:01:00.166Z,939.13
2019-02-19T02:02:00.576Z,939.1
2019-02-19T02:03:01.270Z,939.15
2019-02-19T02:04:02.520Z,939.19
2019-02-19T02:05:03.500Z,939.1
2019-02-19T02:06:04.190Z,939.13
2019-02-19T02:07:04.940Z,939.2
2019-02-19T02:08:06.188Z,939.16
2019-02-19T02:09:07.166Z,939.08
2019-02-19T02:10:07.425Z,939.1
2019-02-19T02:11:07.849Z,939.11
2019-02-19T02:12:08.548Z,939.12
2019-02-19T02:13:09.524Z,939.12
2019-02-19T02:14:10.659Z,939.06
2019-02-19T02:15:11.068Z,939.1
2019-02-19T02:16:11.756Z,939.13
2019-02-19T02:17:12.221Z,939.12
2019-02-19T02:18:13.042Z,939.08
2019-02-19T02:19:13.730Z,939.08
2019-02-19T02:20:14.738Z,939.11
2019-02-19T02:21:15.055Z,939.08
2019-02-19T02:22:16.024Z,939.14
2019-02-19T02:23:16.432Z,939.11
2019-02-19T02:24:17.122Z,938.99
2019-02-19T02:25:18.200Z,939.09
2019-02-19T02:26:18.913Z,939.08
2019-02-19T02:27:19.884Z,938.97
2019-02-19T02:28:20.999Z,939.06
2019-02-19T02:29:21.976Z,939.01
2019-02-19T02:30:22.433Z,939.08
2019-02-19T02:31:23.533Z,939.08
2019-02-19T02:32:24.066Z,939.07
2019-02-19T02:33:24.866Z,939.11
2019-02-19T02:34:25.555Z,939.13
2019-02-19T02:35:26.523Z,939.14
2019-02-19T02:36:27.216Z,939.17
2019-02-19T02:37:27.508Z,939.21
2019-02-19T02:38:28.343Z,939.16
2019-02-19T02:39:29.306Z,939.16
2019-02-19T02:40:30.402Z,939.16
2019-02-19T02:41:30.683Z,939.18
2019-02-19T02:42:31.392Z,939.11
2019-02-19T02:43:32.405Z,939.07
2019-02-19T02:44:33.379Z,939.16
2019-02-19T02:45:34.373Z,939.18
2019-02-19T02:46:34.905Z,939.22
2019-02-19T02:47:35.445Z,939.27
2019-02-19T02:48:36.436Z,939.29
2019-02-19T02:49:36.693Z,939.22
2019-02-19T02:50:37.661Z,939.31
2019-02-19T02:51:38.914Z,939.29
2019-02-19T02:52:39.605Z,939.28
2019-02-19T02:53:40.018Z,939.24
2019-02-19T02:54:40.442Z,939.29
2019-02-19T02:55:40.861Z,939.25
2019-02-19T02:56:41.848Z,939.32
2019-02-19T02:57:42.810Z,939.26
2019-02-19T02:58:43.488Z,939.27
2019-02-19T02:59:44.195Z,939.24
2019-02-19T03:00:44.643Z,939.25
2019-02-19T03:01:45.615Z,939.26
2019-02-19T03:02:46.595Z,939.31
2019-02-19T03:03:47.577Z,939.27
2019-02-19T03:04:48.996Z,939.28
2019-02-19T03:05:50.135Z,939.32
2019-02-19T03:06:50.830Z,939.34
2019-02-19T03:07:51.088Z,939.33
2019-02-19T03:08:51.993Z,939.32
2019-02-19T03:09:52.700Z,939.33
2019-02-19T03:10:53.391Z,939.28
2019-02-19T03:11:54.369Z,939.35
2019-02-19T03:12:55.083Z,939.36
2019-02-19T03:13:56.055Z,939.34
2019-02-19T03:14:56.460Z,939.34
2019-02-19T03:16:03.184Z,939.36
2019-02-19T03:16:09.459Z,939.35
2019-02-19T03:17:10.289Z,939.41
2019-02-19T03:18:10.984Z,939.43
2019-02-19T03:19:12.419Z,939.36
2019-02-19T03:20:13.388Z,939.39
2019-02-19T03:21:13.803Z,939.46
2019-02-19T03:22:14.494Z,939.37
2019-02-19T03:23:14.917Z,939.39
2019-02-19T03:24:15.885Z,939.5
2019-02-19T03:25:17.131Z,939.57
2019-02-19T03:26:17.817Z,939.46
2019-02-19T03:27:18.265Z,939.5
2019-02-19T03:28:18.694Z,939.54
2019-02-19T03:29:19.110Z,939.49
2019-02-19T03:30:20.109Z,939.58
2019-02-19T03:31:21.048Z,939.56
2019-02-19T03:32:21.583Z,939.47
2019-02-19T03:33:22.162Z,939.58
2019-02-19T03:34:22.450Z,939.57
2019-02-19T03:35:23.376Z,939.47
2019-02-19T03:36:24.349Z,939.6
2019-02-19T03:37:25.322Z,939.59
2019-02-19T03:38:26.282Z,939.53
2019-02-19T03:39:27.251Z,939.52
2019-02-19T03:40:27.947Z,939.6
2019-02-19T03:41:29.050Z,939.57
2019-02-19T03:42:29.470Z,939.56
2019-02-19T03:43:30.158Z,939.56
2019-02-19T03:44:31.324Z,939.68
2019-02-19T03:45:32.160Z,939.63
2019-02-19T03:46:33.442Z,939.58
2019-02-19T03:47:34.116Z,939.6
2019-02-19T03:48:35.115Z,939.73
2019-02-19T03:49:36.135Z,939.65
2019-02-19T03:50:36.565Z,939.59
2019-02-19T03:51:37.252Z,939.67
2019-02-19T03:52:38.000Z,939.69
2019-02-19T03:53:38.976Z,939.69
2019-02-19T03:54:39.951Z,939.63
2019-02-19T03:55:40.937Z,939.67
2019-02-19T03:56:41.626Z,939.73
2019-02-19T03:57:42.020Z,939.69
2019-02-19T03:58:42.986Z,939.67
2019-02-19T03:59:43.981Z,939.73
2019-02-19T04:00:44.227Z,939.75
2019-02-19T04:01:44.918Z,939.77
2019-02-19T04:02:45.892Z,939.75
2019-02-19T04:03:46.581Z,939.83
2019-02-19T04:04:47.114Z,939.75
2019-02-19T04:05:47.588Z,939.7
2019-02-19T04:06:48.301Z,939.78
2019-02-19T04:07:48.798Z,939.78
2019-02-19T04:08:49.931Z,939.83
2019-02-19T04:09:51.176Z,939.78
2019-02-19T04:10:51.595Z,939.77
2019-02-19T04:11:52.284Z,939.71
2019-02-19T04:12:52.973Z,939.77
2019-02-19T04:13:54.218Z,939.8
2019-02-19T04:14:54.929Z,939.79
2019-02-19T04:15:55.906Z,939.76
2019-02-19T04:16:56.902Z,939.74
2019-02-19T04:17:57.644Z,939.85
2019-02-19T04:18:58.622Z,939.83
2019-02-19T04:19:59.594Z,939.75
2019-02-19T04:21:00.571Z,939.76
2019-02-19T04:22:01.819Z,939.74
2019-02-19T04:23:02.507Z,939.75
2019-02-19T04:24:03.248Z,939.74
2019-02-19T04:25:04.256Z,939.73
2019-02-19T04:26:05.247Z,939.75
2019-02-19T04:27:05.496Z,939.7
2019-02-19T04:28:06.708Z,939.82
2019-02-19T04:29:07.683Z,939.81
2019-02-19T04:30:08.103Z,939.69
2019-02-19T04:31:08.639Z,939.86
2019-02-19T04:32:08.889Z,939.74
2019-02-19T04:33:09.859Z,939.8
2019-02-19T04:34:10.918Z,939.77
2019-02-19T04:35:11.480Z,939.77
2019-02-19T04:36:12.181Z,939.76
2019-02-19T04:37:13.144Z,939.74
2019-02-19T04:38:14.273Z,939.73
2019-02-19T04:39:14.565Z,939.74
2019-02-19T04:40:15.261Z,939.8
2019-02-19T04:41:15.974Z,939.78
2019-02-19T04:42:17.098Z,939.76
2019-02-19T04:43:17.479Z,939.73
2019-02-19T04:44:18.173Z,939.72
2019-02-19T04:45:19.419Z,939.72
2019-02-19T04:46:20.422Z,939.73
2019-02-19T04:46:32.199Z,939.7
2019-02-19T04:47:32.609Z,939.7
2019-02-19T04:48:33.301Z,939.72
2019-02-19T04:49:34.323Z,939.66
2019-02-19T04:50:35.023Z,939.7
2019-02-19T04:51:35.715Z,939.67
2019-02-19T04:52:36.001Z,939.67
2019-02-19T04:53:36.265Z,939.65
2019-02-19T04:54:36.961Z,939.61
2019-02-19T04:55:38.008Z,939.59
2019-02-19T04:56:38.730Z,939.64
2019-02-19T04:57:39.958Z,939.65
2019-02-19T04:58:40.974Z,939.59
2019-02-19T04:59:41.949Z,939.6
2019-02-19T05:00:42.752Z,939.53
2019-02-19T05:01:43.167Z,939.53
2019-02-19T05:02:44.163Z,939.55
2019-02-19T05:03:44.888Z,939.62
2019-02-19T05:04:45.140Z,939.57
2019-02-19T05:05:45.687Z,939.57
2019-02-19T05:06:46.972Z,939.58
2019-02-19T05:07:48.088Z,939.62
2019-02-19T05:08:49.350Z,939.63
2019-02-19T05:09:50.041Z,939.52
2019-02-19T05:10:50.732Z,939.64
2019-02-19T05:11:51.424Z,939.69
2019-02-19T05:12:52.391Z,939.69
2019-02-19T05:13:53.359Z,939.65
2019-02-19T05:14:53.636Z,939.62
2019-02-19T05:15:53.895Z,939.69
2019-02-19T05:16:54.864Z,939.65
2019-02-19T05:17:55.429Z,939.64
2019-02-19T05:18:55.996Z,939.6
2019-02-19T05:19:56.964Z,939.62
2019-02-19T05:20:57.772Z,939.62
2019-02-19T05:21:58.468Z,939.63
2019-02-19T05:22:59.610Z,939.64
2019-02-19T05:24:00.575Z,939.64
2019-02-19T05:25:01.271Z,939.62
2019-02-19T05:26:02.605Z,939.65
2019-02-19T05:27:03.022Z,939.7
2019-02-19T05:28:03.713Z,939.68
2019-02-19T05:29:04.410Z,939.7
2019-02-19T05:30:04.963Z,939.74
2019-02-19T05:31:05.664Z,939.75
2019-02-19T05:32:06.634Z,939.77
2019-02-19T05:33:07.601Z,939.76
2019-02-19T05:34:08.575Z,939.74
2019-02-19T05:35:09.582Z,939.78
2019-02-19T05:36:10.125Z,939.83
2019-02-19T05:37:10.868Z,939.77
2019-02-19T05:38:11.844Z,939.79
2019-02-19T05:39:12.377Z,939.8
2019-02-19T05:40:13.063Z,939.82
2019-02-19T05:41:13.751Z,939.75
2019-02-19T05:42:14.727Z,939.77
2019-02-19T05:43:15.475Z,939.86
2019-02-19T05:44:16.717Z,939.81
2019-02-19T05:45:17.407Z,939.87
2019-02-19T05:46:17.825Z,939.8
2019-02-19T05:47:18.808Z,939.81
2019-02-19T05:48:19.484Z,939.86
2019-02-19T05:49:20.449Z,939.79
2019-02-19T05:50:20.930Z,939.78
2019-02-19T05:51:21.659Z,939.83
2019-02-19T05:52:22.619Z,939.84
2019-02-19T05:53:23.031Z,939.86
2019-02-19T05:54:24.023Z,939.9
2019-02-19T05:55:24.465Z,939.88
2019-02-19T05:56:25.442Z,939.85
2019-02-19T05:57:26.163Z,939.88
2019-02-19T05:58:26.823Z,939.84
2019-02-19T05:59:27.235Z,939.86
2019-02-19T06:00:28.203Z,939.79
2019-02-19T06:01:28.729Z,939.78
2019-02-19T06:02:29.453Z,939.85
2019-02-19T06:03:29.874Z,939.85
2019-02-19T06:04:31.137Z,939.8
2019-02-19T06:05:31.554Z,939.81
2019-02-19T06:06:31.970Z,939.81
2019-02-19T06:07:32.950Z,939.85
2019-02-19T06:08:34.047Z,939.84
2019-02-19T06:09:34.463Z,939.9
2019-02-19T06:10:35.434Z,939.89
2019-02-19T06:11:36.409Z,939.86
2019-02-19T06:12:37.674Z,939.87
2019-02-19T06:13:38.695Z,939.93
2019-02-19T06:14:39.414Z,939.95
2019-02-19T06:15:40.111Z,939.9
2019-02-19T06:16:41.084Z,939.96
2019-02-19T06:17:41.810Z,939.97
2019-02-19T06:18:42.001Z,939.9
2019-02-19T06:19:42.822Z,939.96
2019-02-19T06:20:43.551Z,940.02
2019-02-19T06:21:44.360Z,939.97
2019-02-19T06:22:45.609Z,939.98
2019-02-19T06:23:46.866Z,939.95
2019-02-19T06:24:48.159Z,939.98
2019-02-19T06:25:48.585Z,939.96
2019-02-19T06:26:49.002Z,939.93
2019-02-19T06:27:49.256Z,939.93
2019-02-19T06:28:49.652Z,939.98
2019-02-19T06:29:49.934Z,940.02
2019-02-19T06:30:50.658Z,939.99
2019-02-19T06:31:51.391Z,940.05
2019-02-19T06:32:51.816Z,940.04
2019-02-19T06:33:52.581Z,940.04
2019-02-19T06:34:53.465Z,940.11
2019-02-19T06:35:54.003Z,940.17
2019-02-19T06:36:54.721Z,940.14
2019-02-19T06:37:55.317Z,940.17
2019-02-19T06:38:55.608Z,940.2
2019-02-19T06:39:56.342Z,940.23
2019-02-19T06:40:57.035Z,940.26
2019-02-19T06:41:57.497Z,940.27
2019-02-19T06:42:58.060Z,940.27
2019-02-19T06:43:59.127Z,940.25
2019-02-19T06:45:00.155Z,940.24
2019-02-19T06:46:00.315Z,940.22
2019-02-19T06:47:07.482Z,940.21
2019-02-19T06:47:14.014Z,940.2
2019-02-19T06:48:14.557Z,940.23
2019-02-19T06:49:15.727Z,940.27
2019-02-19T06:50:16.699Z,940.31
2019-02-19T06:51:17.161Z,940.29
2019-02-19T06:52:17.856Z,940.29
2019-02-19T06:53:18.830Z,940.32
2019-02-19T06:54:19.264Z,940.27
2019-02-19T06:55:19.965Z,940.28
2019-02-19T06:56:20.669Z,940.24
2019-02-19T06:57:21.088Z,940.29
2019-02-19T06:58:21.962Z,940.35
2019-02-19T06:59:22.384Z,940.39
2019-02-19T07:00:23.360Z,940.45
2019-02-19T07:01:24.061Z,940.43
2019-02-19T07:02:24.583Z,940.5
2019-02-19T07:03:25.698Z,940.47
2019-02-19T07:04:26.458Z,940.43
2019-02-19T07:05:27.264Z,940.44
2019-02-19T07:06:27.685Z,940.5
2019-02-19T07:07:29.072Z,940.44
2019-02-19T07:08:29.811Z,940.39
2019-02-19T07:09:30.503Z,940.38
2019-02-19T07:10:33.040Z,940.42
2019-02-19T07:10:44.192Z,940.42
2019-02-19T07:11:44.606Z,940.44
2019-02-19T07:12:46.380Z,940.47
2019-02-19T07:12:58.865Z,940.4
2019-02-19T07:13:11.241Z,940.44
2019-02-19T07:14:11.571Z,940.43
2019-02-19T07:15:11.782Z,940.38
2019-02-19T07:16:12.882Z,940.44
2019-02-19T07:17:16.423Z,940.51
2019-02-19T07:18:16.696Z,940.5
2019-02-19T07:19:17.147Z,940.46
2019-02-19T07:20:17.567Z,940.47
2019-02-19T07:21:18.003Z,940.46
2019-02-19T07:22:18.709Z,940.48
2019-02-19T07:23:19.673Z,940.46
2019-02-19T07:24:04.710Z,940.46
2019-02-19T07:25:04.934Z,940.51
2019-02-19T07:26:05.522Z,940.56
2019-02-19T07:27:05.943Z,940.59
2019-02-19T07:28:06.966Z,940.55
2019-02-19T07:29:08.227Z,940.6
2019-02-19T07:30:08.988Z,940.68
2019-02-19T07:31:09.529Z,940.74
2019-02-19T07:32:10.503Z,940.69
2019-02-19T07:33:11.489Z,940.74
2019-02-19T07:34:12.187Z,940.79
2019-02-19T07:35:13.198Z,940.84
2019-02-19T07:36:13.294Z,940.84
2019-02-19T07:37:14.036Z,940.89
2019-02-19T07:38:16.176Z,940.89
2019-02-19T07:39:16.724Z,940.94
2019-02-19T07:40:18.117Z,941.02
2019-02-19T07:41:18.953Z,940.92
2019-02-19T07:42:19.858Z,940.86
2019-02-19T07:43:20.614Z,940.88
2019-02-19T07:44:21.393Z,940.79
2019-02-19T07:45:22.170Z,940.85
2019-02-19T07:46:23.423Z,940.89
2019-02-19T07:47:25.208Z,940.91
2019-02-19T07:48:26.478Z,940.91
2019-02-19T07:49:27.391Z,940.92
2019-02-19T07:50:28.140Z,940.86
2019-02-19T07:51:29.020Z,941.03
2019-02-19T07:52:31.072Z,940.97
2019-02-19T07:53:31.412Z,940.99
2019-02-19T07:54:33.408Z,940.98
2019-02-19T07:55:34.290Z,940.97
2019-02-19T07:56:35.003Z,941.13
2019-02-19T07:57:36.017Z,941.01
2019-02-19T07:58:36.751Z,941.03
2019-02-19T07:59:37.523Z,941
2019-02-19T08:00:37.949Z,940.94
2019-02-19T08:01:38.695Z,940.95
2019-02-19T08:02:39.175Z,940.91
2019-02-19T08:03:39.926Z,940.94
2019-02-19T08:04:41.190Z,940.97
2019-02-19T08:05:42.653Z,940.94
2019-02-19T08:06:43.706Z,941
2019-02-19T08:07:44.804Z,940.97
2019-02-19T08:08:45.258Z,940.97
2019-02-19T08:09:45.971Z,940.96
2019-02-19T08:10:46.713Z,940.96
2019-02-19T08:11:47.150Z,940.98
2019-02-19T08:12:47.586Z,940.97
2019-02-19T08:13:48.317Z,940.98
2019-02-19T08:14:51.102Z,941.07
2019-02-19T08:15:50.915Z,941.07
2019-02-19T08:16:51.347Z,941.02
2019-02-19T08:17:51.798Z,940.93
2019-02-19T08:18:53.731Z,940.96
2019-02-19T08:19:54.125Z,940.99
2019-02-19T08:20:55.381Z,940.95
2019-02-19T08:21:57.525Z,940.91
2019-02-19T08:22:57.570Z,940.94
2019-02-19T08:24:00.135Z,940.95
2019-02-19T08:24:10.444Z,941.02
2019-02-19T08:24:22.630Z,940.98
2019-02-19T08:24:34.045Z,940.98
2019-02-19T08:25:35.042Z,941.02
2019-02-19T08:26:35.242Z,941.02
2019-02-19T08:27:35.952Z,941.06
2019-02-19T08:28:37.935Z,941.06
2019-02-19T08:29:37.780Z,941.14
2019-02-19T08:30:40.089Z,941.1
2019-02-19T08:30:50.714Z,941.1
2019-02-19T08:31:02.829Z,941.11
2019-02-19T08:31:14.766Z,941.13
2019-02-19T08:31:26.291Z,941.14
2019-02-19T08:32:27.419Z,941.13
2019-02-19T08:33:29.077Z,941.15
2019-02-19T08:33:40.539Z,941.14
2019-02-19T08:33:53.927Z,941.15
2019-02-19T08:34:55.117Z,941.23
2019-02-19T08:35:05.643Z,941.17
2019-02-19T08:36:06.767Z,941.21
2019-02-19T08:37:07.208Z,941.21
2019-02-19T08:38:08.209Z,941.16
2019-02-19T08:39:08.646Z,941.09
2019-02-19T08:40:09.801Z,941.13
2019-02-19T08:41:10.551Z,941.07
2019-02-19T08:42:11.552Z,941.05
2019-02-19T08:43:12.010Z,941.08
2019-02-19T08:44:13.654Z,941.04
2019-02-19T08:45:15.938Z,941.01
2019-02-19T08:46:15.777Z,941.05
2019-02-19T08:47:16.184Z,941.01
2019-02-19T08:48:18.137Z,941.06
2019-02-19T08:48:29.132Z,941.03
2019-02-19T08:49:30.018Z,941.03
2019-02-19T08:50:30.999Z,941.08
2019-02-19T08:51:31.362Z,941.06
2019-02-19T08:52:31.634Z,941.06
2019-02-19T08:53:32.199Z,941.09
2019-02-19T08:54:32.641Z,941.09
2019-02-19T08:55:35.196Z,941.06
2019-02-19T08:56:38.565Z,941.06
2019-02-19T08:56:49.363Z,941.04
2019-02-19T08:57:01.615Z,941.1
2019-02-19T08:57:14.664Z,941.09
2019-02-19T08:57:27.062Z,941.07
2019-02-19T08:57:38.686Z,941.07
2019-02-19T08:57:50.544Z,941.1
2019-02-19T08:58:50.549Z,941.08
2019-02-19T08:59:52.366Z,941.11
2019-02-19T09:00:53.260Z,941.09
2019-02-19T09:01:55.619Z,941.07
2019-02-19T09:02:57.065Z,941.11
2019-02-19T09:03:07.885Z,941.1
2019-02-19T09:04:09.167Z,941.09
2019-02-19T09:04:20.045Z,941.1
2019-02-19T09:05:21.720Z,941.12
2019-02-19T09:06:22.219Z,941.24
2019-02-19T09:07:22.496Z,941.18
2019-02-19T09:08:23.649Z,941.05
2019-02-19T09:09:24.384Z,941.06
2019-02-19T09:10:25.684Z,941.14
2019-02-19T09:11:26.850Z,941.08
2019-02-19T09:12:27.436Z,941.08
2019-02-19T09:13:28.439Z,941.06
2019-02-19T09:14:29.184Z,941
2019-02-19T09:15:30.197Z,941.01
2019-02-19T09:16:32.069Z,941.01
2019-02-19T09:17:33.091Z,941.01
2019-02-19T09:18:35.077Z,940.99
2019-02-19T09:18:46.418Z,940.98
2019-02-19T09:19:00.552Z,940.92
2019-02-19T09:19:12.683Z,940.9
2019-02-19T09:19:24.887Z,940.86
2019-02-19T09:19:36.819Z,940.92
2019-02-19T09:20:39.215Z,940.93
2019-02-19T09:21:40.731Z,941.12
2019-02-19T09:21:52.491Z,941.14
2019-02-19T09:22:54.041Z,941.16
2019-02-19T09:23:54.693Z,941.04
2019-02-19T09:24:55.686Z,941.04
2019-02-19T09:25:56.759Z,941.23
2019-02-19T09:26:57.243Z,941.28
2019-02-19T09:27:57.954Z,941.3
2019-02-19T09:28:58.676Z,941.2
2019-02-19T09:29:58.989Z,941.17
2019-02-19T09:30:59.682Z,941.35
2019-02-19T09:32:00.244Z,941.32
2019-02-19T09:33:00.686Z,941.26
2019-02-19T09:34:00.961Z,941.27
2019-02-19T09:35:01.398Z,941.23
2019-02-19T09:36:02.115Z,941.26
2019-02-19T09:37:02.592Z,941.26
2019-02-19T09:38:04.062Z,941.31
2019-02-19T09:38:17.466Z,941.36
2019-02-19T09:38:31.128Z,941.38
2019-02-19T09:38:42.512Z,941.35
2019-02-19T09:39:45.689Z,941.36
2019-02-19T09:39:56.144Z,941.35
2019-02-19T09:40:57.647Z,941.32
2019-02-19T09:41:58.678Z,941.35
2019-02-19T09:42:59.694Z,941.39
2019-02-19T09:44:02.306Z,941.36
2019-02-19T09:44:13.456Z,941.37
2019-02-19T09:45:14.047Z,941.37
2019-02-19T09:46:14.930Z,941.36
2019-02-19T09:47:16.151Z,941.32
2019-02-19T09:47:28.020Z,941.35
2019-02-19T09:48:28.714Z,941.38
2019-02-19T09:49:29.453Z,941.36
2019-02-19T09:50:29.764Z,941.39
2019-02-19T09:51:30.513Z,941.26
2019-02-19T09:52:31.274Z,941.26
2019-02-19T09:52:43.758Z,941.27
2019-02-19T09:52:59.880Z,941.29
2019-02-19T09:53:08.352Z,941.27
2019-02-19T09:53:20.670Z,941.27
2019-02-19T09:53:32.423Z,941.26
2019-02-19T09:54:33.005Z,941.24
2019-02-19T09:55:33.991Z,941.22
2019-02-19T09:56:35.147Z,941.28
2019-02-19T09:57:35.710Z,941.21
2019-02-19T09:58:36.686Z,941.28
2019-02-19T09:59:37.676Z,941.3
2019-02-19T10:00:38.693Z,941.29
2019-02-19T10:01:39.795Z,941.28
2019-02-19T10:02:41.087Z,941.27
2019-02-19T10:03:41.531Z,941.33
2019-02-19T10:04:42.678Z,941.32
2019-02-19T10:05:43.219Z,941.33
2019-02-19T10:06:43.948Z,941.3
2019-02-19T10:07:44.965Z,941.31
2019-02-19T10:08:45.241Z,941.34
2019-02-19T10:09:45.519Z,941.33
2019-02-19T10:10:46.675Z,941.37
2019-02-19T10:11:47.399Z,941.33
2019-02-19T10:12:48.409Z,941.37
2019-02-19T10:13:49.539Z,941.33
2019-02-19T10:14:50.128Z,941.33
2019-02-19T10:15:51.271Z,941.35
2019-02-19T10:16:52.255Z,941.38
2019-02-19T10:17:53.301Z,941.35
2019-02-19T10:18:53.585Z,941.39
2019-02-19T10:19:54.742Z,941.41
2019-02-19T10:20:55.467Z,941.26
2019-02-19T10:21:56.235Z,941.3
2019-02-19T10:22:57.683Z,941.32
2019-02-19T10:23:58.675Z,941.36
2019-02-19T10:25:00.906Z,941.34
2019-02-19T10:25:11.766Z,941.33
2019-02-19T10:26:12.354Z,941.35
2019-02-19T10:27:13.823Z,941.33
2019-02-19T10:28:14.550Z,941.39
2019-02-19T10:29:15.258Z,941.42
2019-02-19T10:30:16.281Z,941.38
2019-02-19T10:31:16.910Z,941.37
2019-02-19T10:32:18.137Z,941.38
2019-02-19T10:33:18.828Z,941.33
2019-02-19T10:34:19.573Z,941.32
2019-02-19T10:35:19.771Z,941.3
2019-02-19T10:36:21.869Z,941.26
2019-02-19T10:37:22.122Z,941.28
2019-02-19T10:38:22.675Z,941.24
2019-02-19T10:39:23.752Z,941.24
2019-02-19T10:40:24.492Z,941.24
2019-02-19T10:41:25.254Z,941.27
2019-02-19T10:42:26.047Z,941.26
2019-02-19T10:43:26.780Z,941.21
2019-02-19T10:44:27.484Z,941.24
2019-02-19T10:45:28.649Z,941.25
2019-02-19T10:46:29.804Z,941.22
2019-02-19T10:47:32.274Z,941.23
2019-02-19T10:47:43.122Z,941.25
2019-02-19T10:48:44.343Z,941.22
2019-02-19T10:49:45.515Z,941.22
2019-02-19T10:50:47.614Z,941.19
2019-02-19T10:50:59.701Z,941.22
2019-02-19T10:52:00.713Z,941.2
2019-02-19T10:53:02.535Z,941.14
2019-02-19T10:54:03.257Z,941.16
2019-02-19T10:55:03.975Z,941.13
2019-02-19T10:56:05.284Z,941.1
2019-02-19T10:57:05.566Z,941.1
2019-02-19T10:58:07.005Z,941.12
2019-02-19T10:59:08.163Z,941.07
2019-02-19T11:00:08.747Z,941.05
2019-02-19T11:01:10.029Z,941.05
2019-02-19T11:02:10.923Z,941.06
2019-02-19T11:03:12.134Z,941.1
2019-02-19T11:04:12.427Z,941.07
2019-02-19T11:05:13.582Z,941.06
2019-02-19T11:06:15.053Z,941.07
2019-02-19T11:07:15.938Z,941.09
2019-02-19T11:07:27.891Z,941.08
2019-02-19T11:08:29.964Z,941.09
2019-02-19T11:08:41.178Z,941.1
2019-02-19T11:09:41.779Z,941.09
2019-02-19T11:10:42.180Z,941.11
2019-02-19T11:11:43.858Z,941.05
2019-02-19T11:11:55.155Z,941.05
2019-02-19T11:12:55.535Z,941.04
2019-02-19T11:13:56.256Z,940.98
2019-02-19T11:14:56.700Z,940.97
2019-02-19T11:15:57.419Z,940.93
2019-02-19T11:16:58.582Z,940.88
2019-02-19T11:17:59.580Z,940.94
2019-02-19T11:19:00.540Z,940.91
2019-02-19T11:20:00.985Z,940.86
2019-02-19T11:21:01.275Z,940.85
2019-02-19T11:22:02.132Z,940.8
2019-02-19T11:23:02.934Z,940.81
2019-02-19T11:24:03.288Z,940.8
2019-02-19T11:25:04.009Z,940.81
2019-02-19T11:26:05.013Z,940.77
2019-02-19T11:27:05.984Z,940.81
2019-02-19T11:28:07.463Z,940.82
2019-02-19T11:29:07.900Z,940.8
2019-02-19T11:30:10.217Z,940.78
2019-02-19T11:31:10.040Z,940.86
2019-02-19T11:32:12.544Z,940.82
2019-02-19T11:32:23.389Z,940.86
2019-02-19T11:33:24.780Z,940.8
2019-02-19T11:33:34.976Z,940.79
2019-02-19T11:34:35.408Z,940.8
2019-02-19T11:35:36.404Z,940.8
2019-02-19T11:36:39.022Z,940.74
2019-02-19T11:36:49.187Z,940.76
2019-02-19T11:37:50.061Z,940.74
2019-02-19T11:38:51.685Z,940.82
2019-02-19T11:39:53.114Z,940.79
2019-02-19T11:40:54.415Z,940.72
2019-02-19T11:41:54.796Z,940.74
2019-02-19T11:42:55.509Z,940.71
2019-02-19T11:43:55.961Z,940.74
2019-02-19T11:44:56.296Z,940.7
2019-02-19T11:45:56.739Z,940.63
2019-02-19T11:46:57.459Z,940.66
2019-02-19T11:47:58.813Z,940.62
2019-02-19T11:48:59.534Z,940.63
2019-02-19T11:50:00.566Z,940.63
2019-02-19T11:51:01.181Z,940.58
2019-02-19T11:52:01.506Z,940.6
2019-02-19T11:53:02.223Z,940.57
2019-02-19T11:54:02.701Z,940.58
2019-02-19T11:55:03.556Z,940.55
2019-02-19T11:56:04.555Z,940.47
2019-02-19T11:57:06.129Z,940.45
2019-02-19T11:57:17.160Z,940.48
2019-02-19T11:58:18.225Z,940.44
2019-02-19T11:59:19.379Z,940.41